Chocowinity, North Carolina
Current Conditions -  °F | °C
As of 4:55 AM on Saturday 29 Nov 2014 (Local Time) from KOCW Reporting Station
Clear Clear  
Wind Chill: 27°   Ceiling: Unl
Heat Index: 27°   Visibility: 10mi
Dew Point: 26°   Wind: 0mph
Humidity: 94%   Direction: NA
Pressure: 30.34"   Gusts: NA
Location:  35.51°N, 77.1°W
Report Text: KOCW 290955Z AUTO 00000KT 10SM CLR M03/M04 A3034 RMK AO2 T10271036
Loading
Personal Weather Stations






























Interactive Weather Map New forecast layout! Learn more

10-Day Weather Forecast

Advertisements
Track Severe Weather on mobile